sensor_id;sensor_type;location;lat;lon;timestamp;pressure;altitude;pressure_sealevel;temperature;humidity
30724;BME280;17473;52.286;20.930;2023-04-08T00:01:00;100876.16;;;5.64;81.79
30724;BME280;17473;52.286;20.930;2023-04-08T00:03:27;100883.53;;;5.56;81.83
30724;BME280;17473;52.286;20.930;2023-04-08T00:05:55;100869.66;;;5.72;81.05
30724;BME280;17473;52.286;20.930;2023-04-08T00:08:22;100884.31;;;5.84;80.89
30724;BME280;17473;52.286;20.930;2023-04-08T00:10:49;100878.91;;;5.80;80.71
30724;BME280;17473;52.286;20.930;2023-04-08T00:13:16;100879.41;;;5.75;81.02
30724;BME280;17473;52.286;20.930;2023-04-08T00:15:43;100888.34;;;6.07;80.01
30724;BME280;17473;52.286;20.930;2023-04-08T00:18:10;100883.59;;;5.86;80.41
30724;BME280;17473;52.286;20.930;2023-04-08T00:20:37;100889.66;;;5.85;80.66
30724;BME280;17473;52.286;20.930;2023-04-08T00:23:04;100887.47;;;5.78;81.17
30724;BME280;17473;52.286;20.930;2023-04-08T00:25:31;100891.00;;;5.78;80.17
30724;BME280;17473;52.286;20.930;2023-04-08T00:27:58;100896.47;;;5.68;81.12
30724;BME280;17473;52.286;20.930;2023-04-08T00:30:25;100877.25;;;5.68;81.33
30724;BME280;17473;52.286;20.930;2023-04-08T00:32:54;100886.03;;;5.83;80.80
30724;BME280;17473;52.286;20.930;2023-04-08T00:35:21;100879.88;;;5.68;80.94
30724;BME280;17473;52.286;20.930;2023-04-08T00:37:48;100872.16;;;5.71;80.04
30724;BME280;17473;52.286;20.930;2023-04-08T00:40:15;100887.53;;;5.64;80.77
30724;BME280;17473;52.286;20.930;2023-04-08T00:42:43;100881.88;;;5.87;79.85
30724;BME280;17473;52.286;20.930;2023-04-08T00:45:10;100879.91;;;5.83;79.56
30724;BME280;17473;52.286;20.930;2023-04-08T00:47:37;100885.31;;;5.86;79.92
30724;BME280;17473;52.286;20.930;2023-04-08T00:50:08;100893.94;;;5.70;80.38
30724;BME280;17473;52.286;20.930;2023-04-08T00:52:36;100884.91;;;5.64;80.89
30724;BME280;17473;52.286;20.930;2023-04-08T00:55:04;100882.84;;;5.74;80.70
30724;BME280;17473;52.286;20.930;2023-04-08T00:57:31;100883.66;;;5.73;80.88
30724;BME280;17473;52.286;20.930;2023-04-08T00:59:59;100893.41;;;5.75;81.10
30724;BME280;17473;52.286;20.930;2023-04-08T01:02:48;100900.41;;;6.18;79.60
30724;BME280;17473;52.286;20.930;2023-04-08T01:05:48;100904.34;;;6.11;80.05
30724;BME280;17473;52.286;20.930;2023-04-08T01:08:20;100908.28;;;6.33;78.95
30724;BME280;17473;52.286;20.930;2023-04-08T01:10:50;100905.03;;;5.94;80.13
30724;BME280;17473;52.286;20.930;2023-04-08T01:13:21;100906.03;;;5.96;80.45
30724;BME280;17473;52.286;20.930;2023-04-08T01:15:50;100905.53;;;6.02;80.58
30724;BME280;17473;52.286;20.930;2023-04-08T01:18:18;100910.09;;;5.91;80.80
30724;BME280;17473;52.286;20.930;2023-04-08T01:20:49;100898.34;;;5.84;80.15
30724;BME280;17473;52.286;20.930;2023-04-08T01:23:34;100905.75;;;5.91;79.52
30724;BME280;17473;52.286;20.930;2023-04-08T01:26:04;100918.66;;;5.88;79.31
30724;BME280;17473;52.286;20.930;2023-04-08T01:28:32;100920.75;;;5.94;79.51
30724;BME280;17473;52.286;20.930;2023-04-08T01:31:00;100919.91;;;5.80;79.55
30724;BME280;17473;52.286;20.930;2023-04-08T01:33:28;100920.53;;;5.76;79.75
30724;BME280;17473;52.286;20.930;2023-04-08T01:35:58;100912.97;;;5.80;79.95
30724;BME280;17473;52.286;20.930;2023-04-08T01:38:27;100916.50;;;5.96;79.88
30724;BME280;17473;52.286;20.930;2023-04-08T01:40:55;100909.06;;;5.74;80.12
30724;BME280;17473;52.286;20.930;2023-04-08T01:43:23;100913.50;;;5.75;79.92
30724;BME280;17473;52.286;20.930;2023-04-08T01:45:53;100915.47;;;5.79;80.06
30724;BME280;17473;52.286;20.930;2023-04-08T01:48:24;100914.22;;;5.72;79.96
30724;BME280;17473;52.286;20.930;2023-04-08T01:50:54;100910.81;;;5.60;80.45
30724;BME280;17473;52.286;20.930;2023-04-08T01:53:22;100912.66;;;5.47;81.25
30724;BME280;17473;52.286;20.930;2023-04-08T01:55:52;100912.50;;;5.44;81.13
30724;BME280;17473;52.286;20.930;2023-04-08T01:58:21;100909.47;;;5.38;81.43
30724;BME280;17473;52.286;20.930;2023-04-08T02:00:52;100914.63;;;5.37;81.25
30724;BME280;17473;52.286;20.930;2023-04-08T02:03:23;100929.00;;;5.43;81.20
30724;BME280;17473;52.286;20.930;2023-04-08T02:05:51;100943.16;;;5.60;80.05
30724;BME280;17473;52.286;20.930;2023-04-08T02:08:18;100941.50;;;5.76;80.26
30724;BME280;17473;52.286;20.930;2023-04-08T02:10:45;100939.34;;;5.55;80.80
30724;BME280;17473;52.286;20.930;2023-04-08T02:13:12;100934.53;;;5.48;81.08
30724;BME280;17473;52.286;20.930;2023-04-08T02:15:43;100934.03;;;5.40;81.46
30724;BME280;17473;52.286;20.930;2023-04-08T02:18:19;100940.44;;;5.17;82.45
30724;BME280;17473;52.286;20.930;2023-04-08T02:21:13;100951.41;;;5.25;82.10
30724;BME280;17473;52.286;20.930;2023-04-08T02:23:46;100944.34;;;5.24;82.45
30724;BME280;17473;52.286;20.930;2023-04-08T02:26:16;100952.59;;;5.30;82.04
30724;BME280;17473;52.286;20.930;2023-04-08T02:28:45;100948.06;;;5.41;81.29
30724;BME280;17473;52.286;20.930;2023-04-08T02:31:16;100947.84;;;5.38;81.15
30724;BME280;17473;52.286;20.930;2023-04-08T02:33:45;100952.84;;;5.20;81.95
30724;BME280;17473;52.286;20.930;2023-04-08T02:36:14;100957.34;;;5.09;82.47
30724;BME280;17473;52.286;20.930;2023-04-08T02:38:48;100948.69;;;5.10;82.87
30724;BME280;17473;52.286;20.930;2023-04-08T02:41:16;100955.16;;;5.01;82.58
30724;BME280;17473;52.286;20.930;2023-04-08T02:43:43;100954.31;;;5.16;83.26
30724;BME280;17473;52.286;20.930;2023-04-08T02:46:11;100954.53;;;4.92;83.21
30724;BME280;17473;52.286;20.930;2023-04-08T02:48:38;100963.13;;;4.90;83.56
30724;BME280;17473;52.286;20.930;2023-04-08T02:51:05;100965.22;;;5.22;82.16
30724;BME280;17473;52.286;20.930;2023-04-08T02:53:32;100963.19;;;5.18;82.24
30724;BME280;17473;52.286;20.930;2023-04-08T02:55:59;100961.00;;;4.97;82.96
30724;BME280;17473;52.286;20.930;2023-04-08T02:58:27;100976.19;;;4.90;83.81
30724;BME280;17473;52.286;20.930;2023-04-08T03:00:54;100978.59;;;4.73;84.88
30724;BME280;17473;52.286;20.930;2023-04-08T03:03:21;100980.13;;;4.83;84.69
30724;BME280;17473;52.286;20.930;2023-04-08T03:05:56;100988.78;;;4.95;84.46
30724;BME280;17473;52.286;20.930;2023-04-08T03:08:23;100991.38;;;4.82;84.81
30724;BME280;17473;52.286;20.930;2023-04-08T03:10:51;100997.31;;;4.79;84.98
30724;BME280;17473;52.286;20.930;2023-04-08T03:13:18;100998.38;;;4.56;85.51
30724;BME280;17473;52.286;20.930;2023-04-08T03:15:45;100989.03;;;4.60;85.60
30724;BME280;17473;52.286;20.930;2023-04-08T03:18:12;101007.09;;;4.43;86.58
30724;BME280;17473;52.286;20.930;2023-04-08T03:20:40;101000.13;;;4.30;86.94
30724;BME280;17473;52.286;20.930;2023-04-08T03:23:07;100999.34;;;4.31;87.22
30724;BME280;17473;52.286;20.930;2023-04-08T03:25:34;101003.16;;;4.36;86.88
30724;BME280;17473;52.286;20.930;2023-04-08T03:28:01;100990.75;;;4.20;87.51
30724;BME280;17473;52.286;20.930;2023-04-08T03:30:28;101007.13;;;4.18;87.83
30724;BME280;17473;52.286;20.930;2023-04-08T03:32:55;101004.56;;;4.31;87.59
30724;BME280;17473;52.286;20.930;2023-04-08T03:35:22;101005.53;;;4.20;87.94
30724;BME280;17473;52.286;20.930;2023-04-08T03:37:50;101010.09;;;4.11;88.68
30724;BME280;17473;52.286;20.930;2023-04-08T03:40:17;101008.63;;;4.14;88.67
30724;BME280;17473;52.286;20.930;2023-04-08T03:42:44;101010.31;;;3.88;89.55
30724;BME280;17473;52.286;20.930;2023-04-08T03:45:11;100997.34;;;3.90;89.63
30724;BME280;17473;52.286;20.930;2023-04-08T03:47:38;101013.81;;;4.01;89.48
30724;BME280;17473;52.286;20.930;2023-04-08T03:50:06;101020.09;;;4.16;88.64
30724;BME280;17473;52.286;20.930;2023-04-08T03:52:33;101006.59;;;4.10;88.84
30724;BME280;17473;52.286;20.930;2023-04-08T03:55:00;101023.97;;;4.10;88.66
30724;BME280;17473;52.286;20.930;2023-04-08T03:57:27;101026.03;;;4.14;88.81
30724;BME280;17473;52.286;20.930;2023-04-08T03:59:54;101015.16;;;4.07;88.97
30724;BME280;17473;52.286;20.930;2023-04-08T04:02:21;101018.00;;;3.99;89.36
30724;BME280;17473;52.286;20.930;2023-04-08T04:04:48;101026.53;;;3.96;89.58
30724;BME280;17473;52.286;20.930;2023-04-08T04:07:15;101018.25;;;3.90;89.65
30724;BME280;17473;52.286;20.930;2023-04-08T04:09:42;101026.63;;;3.98;89.85
30724;BME280;17473;52.286;20.930;2023-04-08T04:12:09;101027.66;;;4.00;89.67
30724;BME280;17473;52.286;20.930;2023-04-08T04:14:36;101025.94;;;4.00;89.73
30724;BME280;17473;52.286;20.930;2023-04-08T04:17:03;101030.31;;;4.13;89.05
30724;BME280;17473;52.286;20.930;2023-04-08T04:19:30;101020.69;;;4.12;88.71
30724;BME280;17473;52.286;20.930;2023-04-08T04:21:58;101032.91;;;4.25;88.22
30724;BME280;17473;52.286;20.930;2023-04-08T04:24:25;101031.13;;;4.76;86.98
30724;BME280;17473;52.286;20.930;2023-04-08T04:26:52;101042.13;;;5.64;82.62
30724;BME280;17473;52.286;20.930;2023-04-08T04:29:19;101051.38;;;6.43;79.47
30724;BME280;17473;52.286;20.930;2023-04-08T04:31:46;101048.81;;;6.88;75.78
30724;BME280;17473;52.286;20.930;2023-04-08T04:34:13;101049.97;;;7.38;73.49
30724;BME280;17473;52.286;20.930;2023-04-08T04:36:40;101045.34;;;8.13;69.87
30724;BME280;17473;52.286;20.930;2023-04-08T04:39:07;101063.59;;;9.11;66.20
30724;BME280;17473;52.286;20.930;2023-04-08T04:41:34;101066.19;;;9.64;62.87
30724;BME280;17473;52.286;20.930;2023-04-08T04:44:05;101071.44;;;10.78;59.17
30724;BME280;17473;52.286;20.930;2023-04-08T04:46:32;101064.84;;;11.74;55.69
30724;BME280;17473;52.286;20.930;2023-04-08T04:49:00;101051.41;;;12.62;52.21
30724;BME280;17473;52.286;20.930;2023-04-08T04:51:27;101058.69;;;13.20;49.40
30724;BME280;17473;52.286;20.930;2023-04-08T04:53:54;101050.53;;;13.67;48.19
30724;BME280;17473;52.286;20.930;2023-04-08T04:56:21;101062.72;;;14.80;45.38
30724;BME280;17473;52.286;20.930;2023-04-08T04:58:48;101050.50;;;15.22;43.90
30724;BME280;17473;52.286;20.930;2023-04-08T05:01:15;101056.88;;;15.65;42.85
30724;BME280;17473;52.286;20.930;2023-04-08T05:03:42;101058.13;;;16.20;41.47
30724;BME280;17473;52.286;20.930;2023-04-08T05:06:10;101057.84;;;16.93;40.05
30724;BME280;17473;52.286;20.930;2023-04-08T05:08:37;101050.16;;;17.65;38.53
30724;BME280;17473;52.286;20.930;2023-04-08T05:11:09;101053.72;;;17.14;38.42
30724;BME280;17473;52.286;20.930;2023-04-08T05:13:36;101053.19;;;17.93;37.50
30724;BME280;17473;52.286;20.930;2023-04-08T05:16:04;101056.78;;;18.63;36.12
30724;BME280;17473;52.286;20.930;2023-04-08T05:18:31;101044.06;;;19.30;35.20
30724;BME280;17473;52.286;20.930;2023-04-08T05:20:58;101056.72;;;19.48;34.72
30724;BME280;17473;52.286;20.930;2023-04-08T05:23:25;101052.63;;;19.98;33.67
30724;BME280;17473;52.286;20.930;2023-04-08T05:25:52;101053.00;;;21.62;31.36
30724;BME280;17473;52.286;20.930;2023-04-08T05:28:19;101055.66;;;21.93;30.63
30724;BME280;17473;52.286;20.930;2023-04-08T05:30:50;101062.78;;;22.08;30.12
30724;BME280;17473;52.286;20.930;2023-04-08T05:33:18;101064.06;;;23.11;28.78
30724;BME280;17473;52.286;20.930;2023-04-08T05:35:45;101063.59;;;22.24;29.50
30724;BME280;17473;52.286;20.930;2023-04-08T05:38:12;101062.28;;;23.10;28.37
30724;BME280;17473;52.286;20.930;2023-04-08T05:40:39;101060.41;;;23.23;27.70
30724;BME280;17473;52.286;20.930;2023-04-08T05:43:06;101059.03;;;23.75;27.04
30724;BME280;17473;52.286;20.930;2023-04-08T05:45:33;101056.56;;;25.04;25.94
30724;BME280;17473;52.286;20.930;2023-04-08T05:48:00;101056.56;;;25.02;25.25
30724;BME280;17473;52.286;20.930;2023-04-08T05:50:27;101058.03;;;25.76;24.31
30724;BME280;17473;52.286;20.930;2023-04-08T05:52:54;101066.06;;;25.81;24.65
30724;BME280;17473;52.286;20.930;2023-04-08T05:55:22;101062.44;;;26.71;23.59
30724;BME280;17473;52.286;20.930;2023-04-08T05:57:49;101078.69;;;26.71;23.49
30724;BME280;17473;52.286;20.930;2023-04-08T06:00:16;101071.91;;;25.58;24.25
30724;BME280;17473;52.286;20.930;2023-04-08T06:02:43;101073.38;;;27.45;22.89
30724;BME280;17473;52.286;20.930;2023-04-08T06:05:10;101073.25;;;26.73;23.25
30724;BME280;17473;52.286;20.930;2023-04-08T06:07:37;101084.28;;;27.05;22.34
30724;BME280;17473;52.286;20.930;2023-04-08T06:10:05;101090.06;;;26.89;22.56
30724;BME280;17473;52.286;20.930;2023-04-08T06:12:36;101082.53;;;27.40;22.51
30724;BME280;17473;52.286;20.930;2023-04-08T06:15:07;101079.13;;;28.01;21.59
30724;BME280;17473;52.286;20.930;2023-04-08T06:17:37;101080.03;;;28.94;20.49
30724;BME280;17473;52.286;20.930;2023-04-08T06:20:06;101081.09;;;27.95;21.68
30724;BME280;17473;52.286;20.930;2023-04-08T06:22:35;101074.25;;;28.45;20.38
30724;BME280;17473;52.286;20.930;2023-04-08T06:25:02;101082.09;;;28.86;20.29
30724;BME280;17473;52.286;20.930;2023-04-08T06:27:29;101085.75;;;29.13;20.66
30724;BME280;17473;52.286;20.930;2023-04-08T06:29:57;101086.16;;;29.01;20.19
30724;BME280;17473;52.286;20.930;2023-04-08T06:32:24;101081.81;;;29.50;19.77
30724;BME280;17473;52.286;20.930;2023-04-08T06:34:51;101088.75;;;28.46;20.47
30724;BME280;17473;52.286;20.930;2023-04-08T06:37:18;101091.81;;;26.92;21.46
30724;BME280;17473;52.286;20.930;2023-04-08T06:39:45;101086.97;;;28.74;19.97
30724;BME280;17473;52.286;20.930;2023-04-08T06:42:12;101090.09;;;28.91;19.97
30724;BME280;17473;52.286;20.930;2023-04-08T06:44:39;101091.81;;;28.00;20.51
30724;BME280;17473;52.286;20.930;2023-04-08T06:47:06;101090.47;;;27.10;21.23
30724;BME280;17473;52.286;20.930;2023-04-08T06:49:33;101089.00;;;28.03;20.71
30724;BME280;17473;52.286;20.930;2023-04-08T06:52:00;101082.75;;;29.76;19.61
30724;BME280;17473;52.286;20.930;2023-04-08T06:54:27;101090.50;;;30.63;18.94
30724;BME280;17473;52.286;20.930;2023-04-08T06:56:54;101090.56;;;31.93;18.11
30724;BME280;17473;52.286;20.930;2023-04-08T06:59:21;101097.47;;;30.70;18.72
30724;BME280;17473;52.286;20.930;2023-04-08T07:01:48;101092.44;;;31.50;18.05
30724;BME280;17473;52.286;20.930;2023-04-08T07:04:16;101091.38;;;30.14;19.16
30724;BME280;17473;52.286;20.930;2023-04-08T07:06:43;101103.25;;;28.76;19.58
30724;BME280;17473;52.286;20.930;2023-04-08T07:09:10;101099.03;;;28.00;20.22
30724;BME280;17473;52.286;20.930;2023-04-08T07:11:38;101098.47;;;28.21;20.77
30724;BME280;17473;52.286;20.930;2023-04-08T07:14:05;101104.72;;;27.18;21.62
30724;BME280;17473;52.286;20.930;2023-04-08T07:16:32;101091.75;;;27.31;21.63
30724;BME280;17473;52.286;20.930;2023-04-08T07:18:59;101098.38;;;27.57;21.92
30724;BME280;17473;52.286;20.930;2023-04-08T07:21:26;101100.13;;;25.41;23.10
30724;BME280;17473;52.286;20.930;2023-04-08T07:23:53;101104.00;;;27.11;21.58
30724;BME280;17473;52.286;20.930;2023-04-08T07:26:20;101096.13;;;29.00;20.33
30724;BME280;17473;52.286;20.930;2023-04-08T07:28:47;101101.47;;;28.42;20.83
30724;BME280;17473;52.286;20.930;2023-04-08T07:31:16;101094.31;;;28.08;21.06
30724;BME280;17473;52.286;20.930;2023-04-08T07:33:44;101096.75;;;28.19;21.04
30724;BME280;17473;52.286;20.930;2023-04-08T07:36:12;101096.81;;;27.48;21.74
30724;BME280;17473;52.286;20.930;2023-04-08T07:38:41;101100.81;;;28.35;21.04
30724;BME280;17473;52.286;20.930;2023-04-08T07:41:08;101106.56;;;27.90;20.81
30724;BME280;17473;52.286;20.930;2023-04-08T07:43:35;101105.47;;;26.87;21.76
30724;BME280;17473;52.286;20.930;2023-04-08T07:46:06;101099.94;;;27.29;21.85
30724;BME280;17473;52.286;20.930;2023-04-08T07:48:34;101108.72;;;25.67;22.60
30724;BME280;17473;52.286;20.930;2023-04-08T07:51:08;101107.69;;;26.22;22.31
30724;BME280;17473;52.286;20.930;2023-04-08T07:53:38;101116.97;;;26.07;22.36
30724;BME280;17473;52.286;20.930;2023-04-08T07:56:14;101114.06;;;25.68;22.70
30724;BME280;17473;52.286;20.930;2023-04-08T07:58:42;101117.34;;;25.33;23.60
30724;BME280;17473;52.286;20.930;2023-04-08T08:01:17;101109.75;;;24.98;24.07
30724;BME280;17473;52.286;20.930;2023-04-08T08:03:46;101112.19;;;23.59;25.15
30724;BME280;17473;52.286;20.930;2023-04-08T08:06:14;101109.66;;;24.34;24.55
30724;BME280;17473;52.286;20.930;2023-04-08T08:08:42;101113.91;;;23.67;25.93
30724;BME280;17473;52.286;20.930;2023-04-08T08:11:09;101106.06;;;24.34;25.07
30724;BME280;17473;52.286;20.930;2023-04-08T08:13:36;101108.06;;;25.51;24.03
30724;BME280;17473;52.286;20.930;2023-04-08T08:16:03;101102.34;;;24.47;24.62
30724;BME280;17473;52.286;20.930;2023-04-08T08:18:35;101104.84;;;25.27;24.67
30724;BME280;17473;52.286;20.930;2023-04-08T08:21:02;101105.13;;;25.65;24.37
30724;BME280;17473;52.286;20.930;2023-04-08T08:23:30;101104.91;;;25.22;24.32
30724;BME280;17473;52.286;20.930;2023-04-08T08:26:03;101105.34;;;24.18;25.61
30724;BME280;17473;52.286;20.930;2023-04-08T08:28:30;101100.78;;;23.28;26.00
30724;BME280;17473;52.286;20.930;2023-04-08T08:30:57;101105.84;;;21.79;27.41
30724;BME280;17473;52.286;20.930;2023-04-08T08:33:25;101117.28;;;22.64;26.78
30724;BME280;17473;52.286;20.930;2023-04-08T08:35:52;101101.34;;;21.51;28.30
30724;BME280;17473;52.286;20.930;2023-04-08T08:38:19;101112.94;;;21.04;29.08
30724;BME280;17473;52.286;20.930;2023-04-08T08:40:54;101111.47;;;19.84;30.27
30724;BME280;17473;52.286;20.930;2023-04-08T08:43:26;101114.59;;;19.30;31.00
30724;BME280;17473;52.286;20.930;2023-04-08T08:45:53;101090.06;;;19.87;31.12
30724;BME280;17473;52.286;20.930;2023-04-08T08:48:20;101099.56;;;21.10;29.91
30724;BME280;17473;52.286;20.930;2023-04-08T08:50:47;101105.59;;;20.50;30.26
30724;BME280;17473;52.286;20.930;2023-04-08T08:53:14;101103.59;;;20.09;30.30
30724;BME280;17473;52.286;20.930;2023-04-08T08:55:42;101104.72;;;20.49;30.09
30724;BME280;17473;52.286;20.930;2023-04-08T08:58:12;101097.66;;;20.78;29.98
30724;BME280;17473;52.286;20.930;2023-04-08T09:00:40;101099.56;;;21.25;30.45
30724;BME280;17473;52.286;20.930;2023-04-08T09:03:18;101108.50;;;21.23;29.18
30724;BME280;17473;52.286;20.930;2023-04-08T09:05:59;101107.84;;;19.77;30.89
30724;BME280;17473;52.286;20.930;2023-04-08T09:08:34;101107.13;;;20.05;30.82
30724;BME280;17473;52.286;20.930;2023-04-08T09:11:19;101099.16;;;20.12;31.17
30724;BME280;17473;52.286;20.930;2023-04-08T09:13:47;101091.50;;;21.05;29.86
30724;BME280;17473;52.286;20.930;2023-04-08T09:16:19;101099.53;;;21.07;29.52
30724;BME280;17473;52.286;20.930;2023-04-08T09:18:47;101100.47;;;21.77;28.81
30724;BME280;17473;52.286;20.930;2023-04-08T09:21:16;101096.88;;;21.89;28.86
30724;BME280;17473;52.286;20.930;2023-04-08T09:26:19;101111.19;;;21.14;29.43
30724;BME280;17473;52.286;20.930;2023-04-08T09:31:33;101112.53;;;20.06;30.54
30724;BME280;17473;52.286;20.930;2023-04-08T09:34:13;101117.59;;;19.69;30.91
30724;BME280;17473;52.286;20.930;2023-04-08T09:36:42;101102.66;;;20.02;31.53
30724;BME280;17473;52.286;20.930;2023-04-08T09:39:15;101106.41;;;20.33;31.05
30724;BME280;17473;52.286;20.930;2023-04-08T09:41:42;101114.75;;;20.97;30.11
30724;BME280;17473;52.286;20.930;2023-04-08T09:44:10;101111.78;;;20.40;31.71
30724;BME280;17473;52.286;20.930;2023-04-08T09:49:45;101105.41;;;20.11;31.76
30724;BME280;17473;52.286;20.930;2023-04-08T09:52:33;101100.47;;;21.77;30.24
30724;BME280;17473;52.286;20.930;2023-04-08T09:55:08;101108.50;;;22.13;29.49
30724;BME280;17473;52.286;20.930;2023-04-08T09:58:17;101104.06;;;21.36;29.23
30724;BME280;17473;52.286;20.930;2023-04-08T10:00:49;101102.25;;;21.25;29.59
30724;BME280;17473;52.286;20.930;2023-04-08T10:03:34;101101.13;;;20.46;30.60
30724;BME280;17473;52.286;20.930;2023-04-08T10:06:03;101101.81;;;20.06;30.63
30724;BME280;17473;52.286;20.930;2023-04-08T10:08:32;101095.41;;;19.87;30.58
30724;BME280;17473;52.286;20.930;2023-04-08T10:11:00;101100.13;;;20.25;30.45
30724;BME280;17473;52.286;20.930;2023-04-08T10:13:27;101092.06;;;20.25;30.81
30724;BME280;17473;52.286;20.930;2023-04-08T10:18:48;101096.41;;;20.03;30.83
30724;BME280;17473;52.286;20.930;2023-04-08T10:21:39;101090.78;;;19.66;31.03
30724;BME280;17473;52.286;20.930;2023-04-08T10:24:13;101097.16;;;19.83;30.57
30724;BME280;17473;52.286;20.930;2023-04-08T10:26:43;101092.47;;;18.67;31.41
30724;BME280;17473;52.286;20.930;2023-04-08T10:31:48;101093.47;;;18.75;31.90
30724;BME280;17473;52.286;20.930;2023-04-08T10:34:20;101096.72;;;18.48;33.11
30724;BME280;17473;52.286;20.930;2023-04-08T10:36:48;101092.00;;;18.99;32.99
30724;BME280;17473;52.286;20.930;2023-04-08T10:39:16;101086.16;;;19.43;31.89
30724;BME280;17473;52.286;20.930;2023-04-08T10:41:45;101086.56;;;18.92;31.61
30724;BME280;17473;52.286;20.930;2023-04-08T10:44:24;101091.28;;;19.18;32.10
30724;BME280;17473;52.286;20.930;2023-04-08T10:46:53;101079.88;;;19.43;32.19
30724;BME280;17473;52.286;20.930;2023-04-08T10:49:20;101080.38;;;18.98;31.98
30724;BME280;17473;52.286;20.930;2023-04-08T10:51:48;101091.81;;;18.85;32.26
30724;BME280;17473;52.286;20.930;2023-04-08T10:54:16;101090.56;;;18.53;32.00
30724;BME280;17473;52.286;20.930;2023-04-08T10:56:49;101083.63;;;18.71;31.83
30724;BME280;17473;52.286;20.930;2023-04-08T10:59:30;101070.09;;;18.58;32.11
30724;BME280;17473;52.286;20.930;2023-04-08T11:02:00;101085.91;;;19.17;31.67
30724;BME280;17473;52.286;20.930;2023-04-08T11:04:28;101075.47;;;19.49;31.60
30724;BME280;17473;52.286;20.930;2023-04-08T11:06:55;101072.69;;;18.51;32.51
30724;BME280;17473;52.286;20.930;2023-04-08T11:09:23;101080.41;;;19.03;31.68
30724;BME280;17473;52.286;20.930;2023-04-08T11:11:51;101073.41;;;18.39;33.08
30724;BME280;17473;52.286;20.930;2023-04-08T11:14:19;101061.81;;;19.14;31.69
30724;BME280;17473;52.286;20.930;2023-04-08T11:16:47;101063.31;;;19.93;31.19
30724;BME280;17473;52.286;20.930;2023-04-08T11:19:15;101058.16;;;20.38;30.55
30724;BME280;17473;52.286;20.930;2023-04-08T11:21:42;101078.72;;;19.11;30.65
30724;BME280;17473;52.286;20.930;2023-04-08T11:24:10;101065.31;;;19.10;31.93
30724;BME280;17473;52.286;20.930;2023-04-08T11:26:38;101069.75;;;18.27;31.75
30724;BME280;17473;52.286;20.930;2023-04-08T11:29:10;101057.06;;;18.12;33.05
30724;BME280;17473;52.286;20.930;2023-04-08T11:31:41;101060.78;;;18.24;33.55
30724;BME280;17473;52.286;20.930;2023-04-08T11:34:09;101067.25;;;17.80;33.30
30724;BME280;17473;52.286;20.930;2023-04-08T11:36:39;101065.63;;;17.33;32.66
30724;BME280;17473;52.286;20.930;2023-04-08T11:39:10;101066.22;;;17.15;33.34
30724;BME280;17473;52.286;20.930;2023-04-08T11:41:39;101063.91;;;16.87;33.80
30724;BME280;17473;52.286;20.930;2023-04-08T11:44:08;101067.97;;;16.68;34.14
30724;BME280;17473;52.286;20.930;2023-04-08T11:46:36;101059.19;;;16.72;34.29
30724;BME280;17473;52.286;20.930;2023-04-08T11:49:07;101065.56;;;16.81;33.80
30724;BME280;17473;52.286;20.930;2023-04-08T11:51:57;101058.94;;;16.60;34.85
30724;BME280;17473;52.286;20.930;2023-04-08T11:54:40;101059.38;;;16.36;35.36
30724;BME280;17473;52.286;20.930;2023-04-08T11:57:08;101056.72;;;16.83;34.83
30724;BME280;17473;52.286;20.930;2023-04-08T11:59:36;101039.88;;;16.86;35.13
30724;BME280;17473;52.286;20.930;2023-04-08T12:02:03;101053.06;;;16.78;34.24
30724;BME280;17473;52.286;20.930;2023-04-08T12:04:31;101045.41;;;16.49;33.79
30724;BME280;17473;52.286;20.930;2023-04-08T12:06:58;101056.91;;;16.04;34.33
30724;BME280;17473;52.286;20.930;2023-04-08T12:09:25;101045.28;;;16.02;34.29
30724;BME280;17473;52.286;20.930;2023-04-08T12:11:53;101041.19;;;16.16;35.18
30724;BME280;17473;52.286;20.930;2023-04-08T12:14:20;101041.38;;;16.71;35.20
30724;BME280;17473;52.286;20.930;2023-04-08T12:16:52;101026.78;;;16.97;34.83
30724;BME280;17473;52.286;20.930;2023-04-08T12:19:19;101027.22;;;17.23;35.01
30724;BME280;17473;52.286;20.930;2023-04-08T12:21:46;101022.34;;;17.52;35.16
30724;BME280;17473;52.286;20.930;2023-04-08T12:24:13;101017.50;;;17.87;35.34
30724;BME280;17473;52.286;20.930;2023-04-08T12:26:40;101023.94;;;18.01;35.13
30724;BME280;17473;52.286;20.930;2023-04-08T12:29:07;101028.72;;;17.61;34.22
30724;BME280;17473;52.286;20.930;2023-04-08T12:31:37;101035.63;;;16.94;35.45
30724;BME280;17473;52.286;20.930;2023-04-08T12:34:04;101036.41;;;16.92;35.43
30724;BME280;17473;52.286;20.930;2023-04-08T12:36:32;101025.66;;;16.87;35.24
30724;BME280;17473;52.286;20.930;2023-04-08T12:38:59;101029.16;;;17.32;35.07
30724;BME280;17473;52.286;20.930;2023-04-08T12:41:26;101009.31;;;17.76;34.02
30724;BME280;17473;52.286;20.930;2023-04-08T12:43:53;101011.75;;;18.22;33.39
30724;BME280;17473;52.286;20.930;2023-04-08T12:46:20;101018.47;;;18.66;33.62
30724;BME280;17473;52.286;20.930;2023-04-08T12:48:48;101016.22;;;18.23;33.37
30724;BME280;17473;52.286;20.930;2023-04-08T12:51:29;101014.84;;;17.87;34.72
30724;BME280;17473;52.286;20.930;2023-04-08T12:53:56;101010.91;;;17.60;34.50
30724;BME280;17473;52.286;20.930;2023-04-08T12:56:25;101021.53;;;17.01;35.35
30724;BME280;17473;52.286;20.930;2023-04-08T12:58:52;101022.72;;;16.71;35.42
30724;BME280;17473;52.286;20.930;2023-04-08T13:01:21;101010.69;;;16.46;36.35
30724;BME280;17473;52.286;20.930;2023-04-08T13:03:48;101010.94;;;17.06;35.57
30724;BME280;17473;52.286;20.930;2023-04-08T13:06:16;101007.31;;;17.02;34.90